Time,TemperatureF,DewpointF,PressureIn,WindDirection,WindDirectionDegrees,WindSpeedMPH,WindSpeedGustMPH,Humidity,HourlyPrecipIn,Conditions,Clouds,dailyrainin,SoftwareType,DateUTC
2013-09-29 00:03:00,57.6,55.6,29.89,NNW,340,10.0,10.0,93,0.00,,,0.00,Wunderground v.1.15,2013-09-29 05:03:00,
2013-09-29 00:09:00,57.6,55.9,29.89,NNW,334,10.0,11.0,94,0.00,,,0.00,Wunderground v.1.15,2013-09-29 05:09:00,
2013-09-29 00:14:00,57.5,55.8,29.89,NW,316,10.0,12.0,94,0.00,,,0.00,Wunderground v.1.15,2013-09-29 05:14:00,
2013-09-29 00:19:00,57.5,55.8,29.89,NNW,331,11.0,14.0,94,0.00,,,0.00,Wunderground v.1.15,2013-09-29 05:19:00,
2013-09-29 00:25:00,57.4,55.7,29.89,NW,325,11.0,13.0,94,0.00,,,0.00,Wunderground v.1.15,2013-09-29 05:25:00,
2013-09-29 00:31:00,57.2,55.5,29.89,NW,325,10.0,10.0,94,0.00,,,0.00,Wunderground v.1.15,2013-09-29 05:31:00,
2013-09-29 00:37:00,57.1,55.4,29.90,NNW,336,9.0,10.0,94,0.00,,,0.00,Wunderground v.1.15,2013-09-29 05:37:00,
2013-09-29 00:43:00,56.9,55.2,29.90,NW,311,9.0,14.0,94,0.00,,,0.00,Wunderground v.1.15,2013-09-29 05:43:00,
2013-09-29 00:49:00,56.7,55.0,29.90,NW,319,10.0,14.0,94,0.00,,,0.00,Wunderground v.1.15,2013-09-29 05:49:00,
2013-09-29 00:54:00,56.6,54.9,29.90,NW,325,9.0,15.0,94,0.00,,,0.00,Wunderground v.1.15,2013-09-29 05:54:00,
2013-09-29 01:00:00,56.5,54.8,29.91,NW,311,10.0,11.0,94,0.00,,,0.00,Wunderground v.1.15,2013-09-29 06:00:00,
2013-09-29 01:05:00,56.3,54.6,29.91,NNW,331,10.0,14.0,94,0.00,,,0.00,Wunderground v.1.15,2013-09-29 06:05:00,
2013-09-29 01:11:00,56.1,54.4,29.91,NNW,328,8.0,8.0,94,0.00,,,0.00,Wunderground v.1.15,2013-09-29 06:11:00,
2013-09-29 01:16:00,55.9,54.5,29.91,NW,318,8.0,10.0,95,0.00,,,0.00,Wunderground v.1.15,2013-09-29 06:16:00,
2013-09-29 01:22:00,55.7,54.3,29.91,NW,325,8.0,10.0,95,0.00,,,0.00,Wunderground v.1.15,2013-09-29 06:22:00,
2013-09-29 01:28:00,55.5,54.1,29.91,NW,323,8.0,10.0,95,0.00,,,0.00,Wunderground v.1.15,2013-09-29 06:28:00,
2013-09-29 01:33:00,55.3,53.9,29.91,NW,320,7.0,9.0,95,0.00,,,0.00,Wunderground v.1.15,2013-09-29 06:33:00,
2013-09-29 01:39:00,55.2,53.8,29.91,NNW,327,8.0,10.0,95,0.00,,,0.00,Wunderground v.1.15,2013-09-29 06:39:00,
2013-09-29 01:45:00,55.0,53.6,29.91,NW,326,8.0,10.0,95,0.00,,,0.00,Wunderground v.1.15,2013-09-29 06:45:00,
2013-09-29 01:50:00,54.9,53.5,29.91,NNW,327,7.0,7.0,95,0.00,,,0.00,Wunderground v.1.15,2013-09-29 06:50:00,
2013-09-29 01:55:00,54.8,53.4,29.91,NW,326,6.0,7.0,95,0.00,,,0.00,Wunderground v.1.15,2013-09-29 06:55:00,
2013-09-29 02:01:00,54.6,53.2,29.91,NNW,327,7.0,9.0,95,0.00,,,0.00,Wunderground v.1.15,2013-09-29 07:01:00,
2013-09-29 02:06:00,54.5,53.1,29.91,NW,325,7.0,9.0,95,0.00,,,0.00,Wunderground v.1.15,2013-09-29 07:06:00,
2013-09-29 02:12:00,54.4,53.3,29.90,NNW,331,8.0,10.0,96,0.00,,,0.00,Wunderground v.1.15,2013-09-29 07:12:00,
2013-09-29 02:18:00,54.3,53.2,29.90,NW,323,8.0,10.0,96,0.00,,,0.00,Wunderground v.1.15,2013-09-29 07:18:00,
2013-09-29 02:24:00,54.2,53.1,29.91,NNW,332,8.0,10.0,96,0.00,,,0.00,Wunderground v.1.15,2013-09-29 07:24:00,
2013-09-29 02:30:00,54.1,53.0,29.91,NW,326,7.0,7.0,96,0.00,,,0.00,Wunderground v.1.15,2013-09-29 07:30:00,
2013-09-29 02:35:00,53.9,52.8,29.90,NNW,327,7.0,8.0,96,0.00,,,0.00,Wunderground v.1.15,2013-09-29 07:35:00,
2013-09-29 02:41:00,53.7,52.6,29.91,NNW,333,6.0,6.0,96,0.00,,,0.00,Wunderground v.1.15,2013-09-29 07:41:00,
2013-09-29 02:47:00,53.6,52.5,29.91,NNW,327,6.0,6.0,96,0.00,,,0.00,Wunderground v.1.15,2013-09-29 07:47:00,
2013-09-29 02:52:00,53.4,52.3,29.91,NW,321,6.0,6.0,96,0.00,,,0.00,Wunderground v.1.15,2013-09-29 07:52:00,
2013-09-29 02:58:00,53.2,52.1,29.91,NW,319,6.0,7.0,96,0.00,,,0.00,Wunderground v.1.15,2013-09-29 07:58:00,
2013-09-29 03:04:00,53.0,51.9,29.91,NW,319,5.0,5.0,96,0.00,,,0.00,Wunderground v.1.15,2013-09-29 08:04:00,
2013-09-29 03:10:00,52.8,51.7,29.91,NW,319,2.0,2.0,96,0.00,,,0.00,Wunderground v.1.15,2013-09-29 08:10:00,
2013-09-29 03:15:00,52.5,51.4,29.92,NW,319,1.0,2.0,96,0.00,,,0.00,Wunderground v.1.15,2013-09-29 08:15:00,
2013-09-29 03:20:00,52.3,51.2,29.92,NW,319,0.0,0.0,96,0.00,,,0.00,Wunderground v.1.15,2013-09-29 08:20:00,
2013-09-29 03:26:00,52.1,51.0,29.91,NW,319,0.0,0.0,96,0.00,,,0.00,Wunderground v.1.15,2013-09-29 08:26:00,
2013-09-29 03:31:00,52.0,50.9,29.91,NW,319,0.0,2.0,96,0.00,,,0.00,Wunderground v.1.15,2013-09-29 08:31:00,
2013-09-29 03:37:00,51.9,50.8,29.91,NW,319,2.0,3.0,96,0.00,,,0.00,Wunderground v.1.15,2013-09-29 08:37:00,
2013-09-29 03:43:00,51.7,50.6,29.92,NW,319,3.0,3.0,96,0.00,,,0.00,Wunderground v.1.15,2013-09-29 08:43:00,
2013-09-29 03:49:00,51.5,50.4,29.92,NW,319,3.0,4.0,96,0.00,,,0.00,Wunderground v.1.15,2013-09-29 08:49:00,
2013-09-29 03:55:00,51.3,50.5,29.91,NW,319,3.0,4.0,97,0.00,,,0.00,Wunderground v.1.15,2013-09-29 08:55:00,
2013-09-29 04:01:00,51.3,50.5,29.92,NW,319,3.0,4.0,97,0.00,,,0.00,Wunderground v.1.15,2013-09-29 09:01:00,
2013-09-29 04:06:00,51.1,50.0,29.92,NW,319,3.0,4.0,96,0.00,,,0.00,Wunderground v.1.15,2013-09-29 09:06:00,
2013-09-29 04:12:00,51.0,50.2,29.92,NW,319,3.0,4.0,97,0.00,,,0.00,Wunderground v.1.15,2013-09-29 09:12:00,
2013-09-29 04:18:00,50.7,49.9,29.92,NW,319,1.0,4.0,97,0.00,,,0.00,Wunderground v.1.15,2013-09-29 09:18:00,
2013-09-29 04:23:00,50.4,49.3,29.92,NW,319,0.0,1.0,96,0.00,,,0.00,Wunderground v.1.15,2013-09-29 09:23:00,
2013-09-29 04:28:00,50.1,49.0,29.92,NW,319,0.0,1.0,96,0.00,,,0.00,Wunderground v.1.15,2013-09-29 09:28:00,
2013-09-29 04:33:00,49.8,48.7,29.92,NW,319,0.0,0.0,96,0.00,,,0.00,Wunderground v.1.15,2013-09-29 09:33:00,
2013-09-29 04:38:00,49.5,48.4,29.92,NW,319,0.0,0.0,96,0.00,,,0.00,Wunderground v.1.15,2013-09-29 09:38:00,
2013-09-29 04:44:00,49.3,48.2,29.92,NW,319,0.0,1.0,96,0.00,,,0.00,Wunderground v.1.15,2013-09-29 09:44:00,
2013-09-29 04:49:00,49.2,48.4,29.92,NW,319,0.0,1.0,97,0.00,,,0.01,Wunderground v.1.15,2013-09-29 09:49:00,
2013-09-29 04:55:00,49.1,48.3,29.92,NW,319,0.0,0.0,97,0.00,,,0.01,Wunderground v.1.15,2013-09-29 09:55:00,
2013-09-29 05:01:00,49.2,48.4,29.92,NW,319,0.0,0.0,97,0.00,,,0.01,Wunderground v.1.15,2013-09-29 10:01:00,
2013-09-29 05:06:00,49.2,48.4,29.93,NW,319,0.0,0.0,97,0.00,,,0.01,Wunderground v.1.15,2013-09-29 10:06:00,
2013-09-29 05:12:00,49.3,48.5,29.93,NW,319,0.0,0.0,97,0.00,,,0.01,Wunderground v.1.15,2013-09-29 10:12:00,
2013-09-29 05:18:00,49.3,48.5,29.93,NW,319,0.0,0.0,97,0.00,,,0.01,Wunderground v.1.15,2013-09-29 10:18:00,
2013-09-29 05:24:00,49.3,48.5,29.93,NW,319,0.0,0.0,97,0.00,,,0.01,Wunderground v.1.15,2013-09-29 10:24:00,
2013-09-29 05:29:00,49.4,48.6,29.93,NW,319,0.0,0.0,97,0.00,,,0.01,Wunderground v.1.15,2013-09-29 10:29:00,
2013-09-29 05:35:00,49.2,48.4,29.93,NW,319,0.0,0.0,97,0.00,,,0.01,Wunderground v.1.15,2013-09-29 10:35:00,
2013-09-29 05:41:00,49.0,48.2,29.93,NW,319,0.0,0.0,97,0.00,,,0.01,Wunderground v.1.15,2013-09-29 10:41:00,
2013-09-29 05:47:00,48.7,47.9,29.93,NW,319,0.0,0.0,97,0.00,,,0.01,Wunderground v.1.15,2013-09-29 10:47:00,
2013-09-29 05:52:00,48.5,47.7,29.93,NW,319,0.0,0.0,97,0.00,,,0.01,Wunderground v.1.15,2013-09-29 10:52:00,
2013-09-29 05:57:00,48.3,47.5,29.93,NW,319,0.0,0.0,97,0.00,,,0.01,Wunderground v.1.15,2013-09-29 10:57:00,
2013-09-29 06:03:00,48.2,47.4,29.93,NW,319,0.0,0.0,97,0.00,,,0.01,Wunderground v.1.15,2013-09-29 11:03:00,
2013-09-29 06:08:00,48.0,47.2,29.93,NW,319,0.0,0.0,97,0.00,,,0.01,Wunderground v.1.15,2013-09-29 11:08:00,
2013-09-29 06:14:00,47.9,47.1,29.94,NW,319,0.0,0.0,97,0.00,,,0.01,Wunderground v.1.15,2013-09-29 11:14:00,
2013-09-29 06:20:00,47.7,46.9,29.94,NW,319,0.0,0.0,97,0.00,,,0.01,Wunderground v.1.15,2013-09-29 11:20:00,
2013-09-29 06:26:00,47.6,46.8,29.94,NW,319,0.0,0.0,97,0.00,,,0.01,Wunderground v.1.15,2013-09-29 11:26:00,
2013-09-29 06:31:00,47.4,46.6,29.94,NW,319,0.0,0.0,97,0.00,,,0.01,Wunderground v.1.15,2013-09-29 11:31:00,
2013-09-29 06:36:00,47.4,46.6,29.94,NW,319,0.0,0.0,97,0.00,,,0.01,Wunderground v.1.15,2013-09-29 11:36:00,
2013-09-29 06:42:00,47.3,46.5,29.94,NW,319,0.0,0.0,97,0.00,,,0.01,Wunderground v.1.15,2013-09-29 11:42:00,
2013-09-29 06:48:00,47.1,46.3,29.94,NW,319,0.0,1.0,97,0.00,,,0.01,Wunderground v.1.15,2013-09-29 11:48:00,
2013-09-29 06:54:00,47.0,46.2,29.95,NW,319,0.0,0.0,97,0.00,,,0.01,Wunderground v.1.15,2013-09-29 11:54:00,
2013-09-29 07:00:00,46.9,46.1,29.95,NW,319,0.0,0.0,97,0.00,,,0.01,Wunderground v.1.15,2013-09-29 12:00:00,
2013-09-29 07:05:00,46.9,46.1,29.95,NW,319,0.0,0.0,97,0.00,,,0.01,Wunderground v.1.15,2013-09-29 12:05:00,
2013-09-29 07:11:00,46.8,46.0,29.95,NW,319,0.0,0.0,97,0.00,,,0.01,Wunderground v.1.15,2013-09-29 12:11:00,
2013-09-29 07:17:00,46.8,46.0,29.95,NW,319,0.0,0.0,97,0.00,,,0.01,Wunderground v.1.15,2013-09-29 12:17:00,
2013-09-29 07:22:00,46.8,46.0,29.95,NW,319,0.0,0.0,97,0.00,,,0.01,Wunderground v.1.15,2013-09-29 12:22:00,
2013-09-29 07:28:00,46.8,46.0,29.95,NW,319,0.0,0.0,97,0.00,,,0.01,Wunderground v.1.15,2013-09-29 12:28:00,
2013-09-29 07:33:00,46.8,46.0,29.96,NW,319,0.0,0.0,97,0.00,,,0.01,Wunderground v.1.15,2013-09-29 12:33:00,
2013-09-29 07:39:00,46.8,46.0,29.96,NW,319,0.0,1.0,97,0.00,,,0.01,Wunderground v.1.15,2013-09-29 12:39:00,
2013-09-29 07:45:00,46.9,46.1,29.96,NW,319,1.0,2.0,97,0.00,,,0.01,Wunderground v.1.15,2013-09-29 12:45:00,
2013-09-29 07:51:00,47.2,46.7,29.96,NW,319,1.0,1.0,98,0.00,,,0.01,Wunderground v.1.15,2013-09-29 12:51:00,
2013-09-29 07:56:00,47.6,47.1,29.96,NW,319,0.0,2.0,98,0.00,,,0.01,Wunderground v.1.15,2013-09-29 12:56:00,
2013-09-29 08:02:00,48.0,47.5,29.96,NW,319,1.0,2.0,98,0.00,,,0.01,Wunderground v.1.15,2013-09-29 13:02:00,
2013-09-29 08:07:00,48.5,48.0,29.95,NW,319,1.0,4.0,98,0.00,,,0.01,Wunderground v.1.15,2013-09-29 13:07:00,
2013-09-29 08:12:00,49.1,48.6,29.96,NW,319,3.0,4.0,98,0.00,,,0.01,Wunderground v.1.15,2013-09-29 13:12:00,
2013-09-29 08:17:00,49.5,49.0,29.96,NW,319,4.0,6.0,98,0.00,,,0.01,Wunderground v.1.15,2013-09-29 13:17:00,
2013-09-29 08:23:00,50.0,49.5,29.96,NW,319,4.0,4.0,98,0.00,,,0.01,Wunderground v.1.15,2013-09-29 13:23:00,
2013-09-29 08:28:00,50.3,49.8,29.97,NW,319,4.0,5.0,98,0.00,,,0.01,Wunderground v.1.15,2013-09-29 13:28:00,
2013-09-29 08:34:00,50.8,50.5,29.96,NW,319,4.0,5.0,99,0.00,,,0.01,Wunderground v.1.15,2013-09-29 13:34:00,
2013-09-29 08:40:00,51.2,50.7,29.97,NW,319,5.0,5.0,98,0.00,,,0.01,Wunderground v.1.15,2013-09-29 13:40:00,
2013-09-29 08:46:00,51.7,51.4,29.97,NW,324,5.0,6.0,99,0.00,,,0.01,Wunderground v.1.15,2013-09-29 13:46:00,
2013-09-29 08:51:00,51.9,51.6,29.97,NNW,333,6.0,6.0,99,0.00,,,0.01,Wunderground v.1.15,2013-09-29 13:51:00,
2013-09-29 08:57:00,52.0,51.7,29.97,NNW,341,6.0,7.0,99,0.00,,,0.01,Wunderground v.1.15,2013-09-29 13:57:00,
2013-09-29 09:02:00,52.3,51.8,29.97,North,349,5.0,5.0,98,0.00,,,0.01,Wunderground v.1.15,2013-09-29 14:02:00,
2013-09-29 09:08:00,52.7,52.4,29.97,NNW,344,5.0,7.0,99,0.00,,,0.01,Wunderground v.1.15,2013-09-29 14:08:00,
2013-09-29 09:14:00,53.1,52.8,29.97,NNW,343,5.0,6.0,99,0.00,,,0.01,Wunderground v.1.15,2013-09-29 14:14:00,
2013-09-29 09:19:00,53.5,53.2,29.97,NNW,346,4.0,6.0,99,0.00,,,0.01,Wunderground v.1.15,2013-09-29 14:19:00,
2013-09-29 09:24:00,54.0,53.7,29.97,NNW,344,4.0,4.0,99,0.00,,,0.01,Wunderground v.1.15,2013-09-29 14:24:00,
2013-09-29 09:30:00,54.4,54.1,29.97,NNW,344,3.0,5.0,99,0.00,,,0.01,Wunderground v.1.15,2013-09-29 14:30:00,
2013-09-29 09:36:00,54.3,54.0,29.97,North,349,4.0,10.0,99,0.00,,,0.01,Wunderground v.1.15,2013-09-29 14:36:00,
2013-09-29 09:42:00,54.9,54.3,29.97,North,360,4.0,4.0,98,0.00,,,0.01,Wunderground v.1.15,2013-09-29 14:42:00,
2013-09-29 09:47:00,55.3,54.7,29.97,NNW,345,3.0,6.0,98,0.00,,,0.01,Wunderground v.1.15,2013-09-29 14:47:00,
2013-09-29 09:52:00,55.5,54.7,29.98,NNW,346,5.0,5.0,97,0.00,,,0.01,Wunderground v.1.15,2013-09-29 14:52:00,
2013-09-29 09:58:00,55.9,54.5,29.98,North,5,5.0,5.0,95,0.00,,,0.01,Wunderground v.1.15,2013-09-29 14:58:00,
2013-09-29 10:03:00,56.3,54.3,29.98,North,360,5.0,6.0,93,0.00,,,0.01,Wunderground v.1.15,2013-09-29 15:03:00,
2013-09-29 10:09:00,56.9,53.7,29.98,North,5,5.0,10.0,89,0.00,,,0.01,Wunderground v.1.15,2013-09-29 15:09:00,
2013-09-29 10:14:00,57.4,53.6,29.98,North,5,6.0,9.0,87,0.00,,,0.01,Wunderground v.1.15,2013-09-29 15:14:00,
2013-09-29 10:19:00,57.8,53.6,29.98,North,5,5.0,9.0,86,0.00,,,0.01,Wunderground v.1.15,2013-09-29 15:19:00,
2013-09-29 10:24:00,58.3,53.5,29.98,North,5,5.0,5.0,84,0.00,,,0.01,Wunderground v.1.15,2013-09-29 15:24:00,
2013-09-29 10:29:00,58.7,53.5,29.98,NNE,13,5.0,7.0,83,0.00,,,0.01,Wunderground v.1.15,2013-09-29 15:29:00,
2013-09-29 10:34:00,59.1,53.3,29.98,NNE,22,5.0,5.0,81,0.00,,,0.01,Wunderground v.1.15,2013-09-29 15:34:00,
2013-09-29 10:40:00,59.7,52.8,29.98,NNE,24,4.0,4.0,78,0.00,,,0.01,Wunderground v.1.15,2013-09-29 15:40:00,
2013-09-29 10:45:00,60.0,50.9,29.98,NNE,21,4.0,7.0,72,0.00,,,0.01,Wunderground v.1.15,2013-09-29 15:45:00,
2013-09-29 10:51:00,60.5,52.2,29.98,NNE,13,5.0,8.0,74,0.00,,,0.01,Wunderground v.1.15,2013-09-29 15:51:00,
2013-09-29 10:57:00,60.7,52.0,29.98,NNE,28,5.0,8.0,73,0.00,,,0.01,Wunderground v.1.15,2013-09-29 15:57:00,
2013-09-29 11:03:00,61.1,51.2,29.99,NE,51,5.0,6.0,70,0.00,,,0.01,Wunderground v.1.15,2013-09-29 16:03:00,
2013-09-29 11:08:00,61.5,50.8,29.98,NNW,337,6.0,9.0,68,0.00,,,0.01,Wunderground v.1.15,2013-09-29 16:08:00,
2013-09-29 11:13:00,61.6,50.5,29.98,North,9,7.0,9.0,67,0.00,,,0.01,Wunderground v.1.15,2013-09-29 16:13:00,
2013-09-29 11:18:00,62.0,51.7,29.99,NNW,338,7.0,11.0,69,0.00,,,0.01,Wunderground v.1.15,2013-09-29 16:18:00,
2013-09-29 11:24:00,62.2,51.1,29.99,North,355,8.0,15.0,67,0.00,,,0.01,Wunderground v.1.15,2013-09-29 16:24:00,
2013-09-29 11:30:00,62.6,49.0,29.98,North,5,8.0,9.0,61,0.00,,,0.01,Wunderground v.1.15,2013-09-29 16:30:00,
2013-09-29 11:36:00,62.9,49.7,29.98,NE,38,5.0,9.0,62,0.00,,,0.01,Wunderground v.1.15,2013-09-29 16:36:00,
2013-09-29 11:41:00,63.2,49.1,29.98,NNE,18,5.0,5.0,60,0.00,,,0.01,Wunderground v.1.15,2013-09-29 16:41:00,
2013-09-29 11:47:00,63.5,48.9,29.98,NNE,24,6.0,11.0,59,0.00,,,0.01,Wunderground v.1.15,2013-09-29 16:47:00,
2013-09-29 11:53:00,63.8,49.2,29.98,North,5,5.0,6.0,59,0.00,,,0.01,Wunderground v.1.15,2013-09-29 16:53:00,
2013-09-29 11:58:00,64.1,49.0,29.98,North,5,5.0,10.0,58,0.00,,,0.01,Wunderground v.1.15,2013-09-29 16:58:00,
2013-09-29 12:04:00,64.2,48.2,29.97,NNE,19,7.0,9.0,56,0.00,,,0.01,Wunderground v.1.15,2013-09-29 17:04:00,
2013-09-29 12:09:00,64.3,49.7,29.97,North,10,7.0,9.0,59,0.00,,,0.01,Wunderground v.1.15,2013-09-29 17:09:00,
2013-09-29 12:15:00,65.0,48.9,29.97,NNE,23,5.0,11.0,56,0.00,,,0.01,Wunderground v.1.15,2013-09-29 17:15:00,
2013-09-29 12:20:00,65.3,47.2,29.97,NNE,17,6.0,6.0,52,0.00,,,0.01,Wunderground v.1.15,2013-09-29 17:20:00,
2013-09-29 12:25:00,65.3,47.7,29.97,North,349,6.0,12.0,53,0.00,,,0.01,Wunderground v.1.15,2013-09-29 17:25:00,
2013-09-29 12:31:00,65.5,46.9,29.97,NNE,28,6.0,9.0,51,0.00,,,0.01,Wunderground v.1.15,2013-09-29 17:31:00,
2013-09-29 12:36:00,65.8,46.6,29.97,ENE,59,6.0,10.0,50,0.00,,,0.01,Wunderground v.1.15,2013-09-29 17:36:00,
2013-09-29 12:41:00,66.2,46.5,29.96,ENE,61,6.0,6.0,49,0.00,,,0.01,Wunderground v.1.15,2013-09-29 17:41:00,
2013-09-29 12:47:00,66.5,45.6,29.96,NNE,18,6.0,11.0,47,0.00,,,0.01,Wunderground v.1.15,2013-09-29 17:47:00,
2013-09-29 12:53:00,66.5,45.1,29.96,NNE,12,7.0,12.0,46,0.00,,,0.01,Wunderground v.1.15,2013-09-29 17:53:00,
2013-09-29 12:59:00,66.8,45.9,29.96,NNE,17,7.0,12.0,47,0.00,,,0.01,Wunderground v.1.15,2013-09-29 17:59:00,
2013-09-29 13:05:00,67.0,45.5,29.95,NNW,328,6.0,10.0,46,0.00,,,0.01,Wunderground v.1.15,2013-09-29 18:05:00,
2013-09-29 13:11:00,67.1,46.2,29.95,NNE,20,7.0,11.0,47,0.00,,,0.01,Wunderground v.1.15,2013-09-29 18:11:00,
2013-09-29 13:16:00,67.5,46.6,29.94,NNE,17,8.0,12.0,47,0.00,,,0.01,Wunderground v.1.15,2013-09-29 18:16:00,
2013-09-29 13:22:00,67.6,45.5,29.94,North,350,8.0,10.0,45,0.00,,,0.01,Wunderground v.1.15,2013-09-29 18:22:00,
2013-09-29 13:27:00,67.7,45.6,29.94,NNW,336,6.0,10.0,45,0.00,,,0.01,Wunderground v.1.15,2013-09-29 18:27:00,
2013-09-29 13:32:00,67.8,45.7,29.94,NNE,22,6.0,11.0,45,0.00,,,0.01,Wunderground v.1.15,2013-09-29 18:32:00,
2013-09-29 13:38:00,67.8,46.3,29.93,NE,44,7.0,11.0,46,0.00,,,0.01,Wunderground v.1.15,2013-09-29 18:38:00,
2013-09-29 13:44:00,67.9,45.8,29.93,NNE,17,5.0,9.0,45,0.00,,,0.01,Wunderground v.1.15,2013-09-29 18:44:00,
2013-09-29 13:50:00,68.1,45.9,29.93,NE,53,6.0,6.0,45,0.00,,,0.01,Wunderground v.1.15,2013-09-29 18:50:00,
2013-09-29 13:56:00,68.4,45.0,29.93,North,9,5.0,9.0,43,0.00,,,0.01,Wunderground v.1.15,2013-09-29 18:56:00,
2013-09-29 14:01:00,68.4,45.0,29.92,ENE,63,6.0,10.0,43,0.00,,,0.01,Wunderground v.1.15,2013-09-29 19:01:00,
2013-09-29 14:06:00,68.2,44.8,29.92,ENE,69,6.0,10.0,43,0.00,,,0.01,Wunderground v.1.15,2013-09-29 19:06:00,
2013-09-29 14:12:00,68.6,44.6,29.92,NE,47,6.0,6.0,42,0.00,,,0.01,Wunderground v.1.15,2013-09-29 19:12:00,
2013-09-29 14:18:00,68.8,44.1,29.92,North,355,7.0,9.0,41,0.00,,,0.01,Wunderground v.1.15,2013-09-29 19:18:00,
2013-09-29 14:24:00,69.0,44.3,29.92,NNE,32,8.0,10.0,41,0.00,,,0.01,Wunderground v.1.15,2013-09-29 19:24:00,
2013-09-29 14:30:00,69.1,43.8,29.92,ENE,66,7.0,7.0,40,0.00,,,0.01,Wunderground v.1.15,2013-09-29 19:30:00,
2013-09-29 14:36:00,69.3,43.3,29.91,ENE,60,6.0,11.0,39,0.00,,,0.01,Wunderground v.1.15,2013-09-29 19:36:00,
2013-09-29 14:41:00,69.5,44.8,29.92,ENE,66,7.0,9.0,41,0.00,,,0.01,Wunderground v.1.15,2013-09-29 19:41:00,
2013-09-29 14:47:00,69.2,44.5,29.91,ENE,70,6.0,9.0,41,0.00,,,0.01,Wunderground v.1.15,2013-09-29 19:47:00,
2013-09-29 14:51:00,69.3,43.9,29.91,NNE,15,7.0,14.0,40,0.00,,,0.01,Wunderground v.1.15,2013-09-29 19:51:00,
2013-09-29 14:56:00,69.4,44.0,29.91,NNE,26,7.0,14.0,40,0.00,,,0.01,Wunderground v.1.15,2013-09-29 19:56:00,
2013-09-29 15:01:00,69.6,43.5,29.90,NNE,20,7.0,8.0,39,0.00,,,0.01,Wunderground v.1.15,2013-09-29 20:01:00,
2013-09-29 15:06:00,69.6,44.2,29.90,NNE,15,6.0,8.0,40,0.00,,,0.01,Wunderground v.1.15,2013-09-29 20:06:00,
2013-09-29 15:12:00,70.0,43.9,29.91,ENE,57,5.0,7.0,39,0.00,,,0.01,Wunderground v.1.15,2013-09-29 20:12:00,
2013-09-29 15:18:00,70.2,43.4,29.91,North,5,6.0,7.0,38,0.00,,,0.01,Wunderground v.1.15,2013-09-29 20:18:00,
2013-09-29 15:24:00,70.1,44.0,29.91,NE,42,7.0,12.0,39,0.00,,,0.01,Wunderground v.1.15,2013-09-29 20:24:00,
2013-09-29 15:29:00,70.0,43.9,29.91,ENE,59,6.0,12.0,39,0.00,,,0.01,Wunderground v.1.15,2013-09-29 20:29:00,
2013-09-29 15:35:00,70.1,44.0,29.90,ENE,61,5.0,7.0,39,0.00,,,0.01,Wunderground v.1.15,2013-09-29 20:35:00,
2013-09-29 15:40:00,70.2,43.4,29.91,NNE,23,7.0,7.0,38,0.00,,,0.01,Wunderground v.1.15,2013-09-29 20:40:00,
2013-09-29 15:46:00,70.0,43.2,29.90,NE,49,6.0,7.0,38,0.00,,,0.01,Wunderground v.1.15,2013-09-29 20:46:00,
2013-09-29 15:51:00,70.0,43.9,29.90,NNE,17,4.0,5.0,39,0.00,,,0.01,Wunderground v.1.15,2013-09-29 20:51:00,
2013-09-29 15:57:00,70.2,44.1,29.90,NNE,19,5.0,7.0,39,0.00,,,0.01,Wunderground v.1.15,2013-09-29 20:57:00,
2013-09-29 16:02:00,70.1,44.6,29.90,ENE,68,5.0,9.0,40,0.00,,,0.01,Wunderground v.1.15,2013-09-29 21:02:00,
2013-09-29 16:08:00,70.0,44.6,29.90,ENE,61,5.0,9.0,40,0.00,,,0.01,Wunderground v.1.15,2013-09-29 21:08:00,
2013-09-29 16:13:00,70.1,45.3,29.90,East,81,5.0,5.0,41,0.00,,,0.01,Wunderground v.1.15,2013-09-29 21:13:00,
2013-09-29 16:19:00,70.3,46.1,29.89,NE,55,4.0,7.0,42,0.00,,,0.01,Wunderground v.1.15,2013-09-29 21:19:00,
2013-09-29 16:24:00,70.3,44.8,29.90,ENE,65,5.0,7.0,40,0.00,,,0.01,Wunderground v.1.15,2013-09-29 21:24:00,
2013-09-29 16:30:00,69.9,44.5,29.90,ENE,75,5.0,5.0,40,0.00,,,0.01,Wunderground v.1.15,2013-09-29 21:30:00,
2013-09-29 16:35:00,69.6,44.8,29.90,ENE,68,6.0,9.0,41,0.00,,,0.01,Wunderground v.1.15,2013-09-29 21:35:00,
2013-09-29 16:40:00,69.4,45.3,29.90,ENE,66,6.0,6.0,42,0.00,,,0.01,Wunderground v.1.15,2013-09-29 21:40:00,
2013-09-29 16:46:00,69.5,45.4,29.90,ENE,76,3.0,6.0,42,0.00,,,0.01,Wunderground v.1.15,2013-09-29 21:46:00,
2013-09-29 16:51:00,69.6,45.5,29.90,ENE,65,4.0,6.0,42,0.00,,,0.01,Wunderground v.1.15,2013-09-29 21:51:00,
2013-09-29 16:57:00,69.5,46.0,29.90,ENE,77,6.0,6.0,43,0.00,,,0.01,Wunderground v.1.15,2013-09-29 21:57:00,
2013-09-29 17:03:00,69.4,45.9,29.90,ENE,61,5.0,9.0,43,0.00,,,0.01,Wunderground v.1.15,2013-09-29 22:03:00,
2013-09-29 17:08:00,69.3,45.2,29.90,East,80,6.0,11.0,42,0.00,,,0.01,Wunderground v.1.15,2013-09-29 22:08:00,
2013-09-29 17:14:00,69.2,45.1,29.90,ENE,72,6.0,6.0,42,0.00,,,0.01,Wunderground v.1.15,2013-09-29 22:14:00,
2013-09-29 17:19:00,69.2,45.7,29.90,ENE,75,4.0,6.0,43,0.00,,,0.01,Wunderground v.1.15,2013-09-29 22:19:00,
2013-09-29 17:24:00,69.2,46.4,29.90,ENE,76,4.0,5.0,44,0.00,,,0.01,Wunderground v.1.15,2013-09-29 22:24:00,
2013-09-29 17:30:00,69.2,45.7,29.90,ENE,76,3.0,5.0,43,0.00,,,0.01,Wunderground v.1.15,2013-09-29 22:30:00,
2013-09-29 17:36:00,69.0,45.6,29.90,ENE,74,4.0,6.0,43,0.00,,,0.01,Wunderground v.1.15,2013-09-29 22:36:00,
2013-09-29 17:42:00,68.8,46.6,29.90,ENE,74,3.0,4.0,45,0.00,,,0.01,Wunderground v.1.15,2013-09-29 22:42:00,
2013-09-29 17:47:00,68.8,46.6,29.90,ENE,74,1.0,4.0,45,0.00,,,0.01,Wunderground v.1.15,2013-09-29 22:47:00,
2013-09-29 17:52:00,68.7,46.5,29.90,ENE,71,1.0,6.0,45,0.00,,,0.01,Wunderground v.1.15,2013-09-29 22:52:00,
2013-09-29 17:57:00,68.4,46.8,29.90,ENE,76,3.0,6.0,46,0.00,,,0.01,Wunderground v.1.15,2013-09-29 22:57:00,
2013-09-29 18:03:00,68.0,47.0,29.90,ENE,76,3.0,5.0,47,0.00,,,0.01,Wunderground v.1.15,2013-09-29 23:03:00,
2013-09-29 18:09:00,67.5,47.1,29.90,ENE,76,3.0,5.0,48,0.00,,,0.01,Wunderground v.1.15,2013-09-29 23:09:00,
2013-09-29 18:14:00,67.1,47.3,29.90,ENE,76,2.0,3.0,49,0.00,,,0.01,Wunderground v.1.15,2013-09-29 23:14:00,
2013-09-29 18:20:00,66.8,47.6,29.90,ENE,76,0.0,0.0,50,0.00,,,0.01,Wunderground v.1.15,2013-09-29 23:20:00,
2013-09-29 18:26:00,66.3,47.6,29.90,ENE,76,0.0,0.0,51,0.00,,,0.01,Wunderground v.1.15,2013-09-29 23:26:00,
2013-09-29 18:32:00,65.6,48.0,29.90,ENE,76,0.0,0.0,53,0.00,,,0.01,Wunderground v.1.15,2013-09-29 23:32:00,
2013-09-29 18:37:00,64.9,47.9,29.90,ENE,76,0.0,0.0,54,0.00,,,0.01,Wunderground v.1.15,2013-09-29 23:37:00,
2013-09-29 18:42:00,64.1,47.6,29.90,ENE,76,0.0,0.0,55,0.00,,,0.01,Wunderground v.1.15,2013-09-29 23:42:00,
2013-09-29 18:48:00,63.2,47.2,29.90,ENE,76,1.0,3.0,56,0.00,,,0.01,Wunderground v.1.15,2013-09-29 23:48:00,
2013-09-29 18:53:00,62.8,46.9,29.90,ENE,76,2.0,3.0,56,0.00,,,0.01,Wunderground v.1.15,2013-09-29 23:53:00,
2013-09-29 18:58:00,62.5,47.1,29.90,ENE,76,2.0,3.0,57,0.00,,,0.01,Wunderground v.1.15,2013-09-29 23:58:00,
2013-09-29 19:04:00,62.1,47.6,29.90,ENE,76,1.0,2.0,59,0.00,,,0.01,Wunderground v.1.15,2013-09-30 00:04:00,
2013-09-29 19:09:00,61.8,47.3,29.90,ENE,76,0.0,2.0,59,0.00,,,0.01,Wunderground v.1.15,2013-09-30 00:09:00,
2013-09-29 19:15:00,61.5,47.0,29.90,ENE,76,0.0,0.0,59,0.00,,,0.01,Wunderground v.1.15,2013-09-30 00:15:00,
2013-09-29 19:20:00,61.4,46.9,29.90,ENE,76,0.0,0.0,59,0.00,,,0.01,Wunderground v.1.15,2013-09-30 00:20:00,
2013-09-29 19:25:00,61.3,46.8,29.90,ENE,76,0.0,0.0,59,0.00,,,0.01,Wunderground v.1.15,2013-09-30 00:25:00,
2013-09-29 19:31:00,61.2,46.8,29.90,ENE,76,0.0,0.0,59,0.00,,,0.01,Wunderground v.1.15,2013-09-30 00:31:00,
2013-09-29 19:37:00,61.0,46.6,29.90,ENE,76,0.0,0.0,59,0.00,,,0.01,Wunderground v.1.15,2013-09-30 00:37:00,
2013-09-29 19:43:00,61.0,46.6,29.90,ENE,76,0.0,2.0,59,0.00,,,0.01,Wunderground v.1.15,2013-09-30 00:43:00,
2013-09-29 19:48:00,60.8,46.4,29.90,ENE,76,1.0,2.0,59,0.00,,,0.01,Wunderground v.1.15,2013-09-30 00:48:00,
2013-09-29 19:53:00,60.8,46.4,29.90,ENE,76,0.0,1.0,59,0.00,,,0.01,Wunderground v.1.15,2013-09-30 00:53:00,
2013-09-29 19:59:00,60.8,46.4,29.90,ENE,76,0.0,1.0,59,0.00,,,0.01,Wunderground v.1.15,2013-09-30 00:59:00,
2013-09-29 20:04:00,60.9,46.5,29.90,ENE,76,0.0,0.0,59,0.00,,,0.01,Wunderground v.1.15,2013-09-30 01:04:00,
2013-09-29 20:09:00,60.9,46.5,29.90,ENE,76,0.0,0.0,59,0.00,,,0.01,Wunderground v.1.15,2013-09-30 01:09:00,
2013-09-29 20:15:00,60.8,46.4,29.90,ENE,76,0.0,0.0,59,0.00,,,0.01,Wunderground v.1.15,2013-09-30 01:15:00,
2013-09-29 20:21:00,60.6,46.2,29.90,ENE,76,0.0,0.0,59,0.00,,,0.01,Wunderground v.1.15,2013-09-30 01:21:00,
2013-09-29 20:26:00,60.5,46.1,29.90,ENE,76,1.0,2.0,59,0.00,,,0.01,Wunderground v.1.15,2013-09-30 01:26:00,
2013-09-29 20:31:00,60.4,46.0,29.90,ENE,76,1.0,1.0,59,0.00,,,0.01,Wunderground v.1.15,2013-09-30 01:31:00,
2013-09-29 20:37:00,60.1,45.7,29.90,ENE,76,0.0,1.0,59,0.00,,,0.01,Wunderground v.1.15,2013-09-30 01:37:00,
2013-09-29 20:43:00,60.1,45.3,29.90,ENE,76,0.0,0.0,58,0.00,,,0.01,Wunderground v.1.15,2013-09-30 01:43:00,
2013-09-29 20:49:00,60.2,45.8,29.90,ENE,76,0.0,0.0,59,0.00,,,0.01,Wunderground v.1.15,2013-09-30 01:49:00,
2013-09-29 20:54:00,60.1,45.3,29.90,ENE,76,0.0,0.0,58,0.00,,,0.01,Wunderground v.1.15,2013-09-30 01:54:00,
2013-09-29 21:00:00,59.9,45.5,29.90,ENE,76,0.0,0.0,59,0.00,,,0.01,Wunderground v.1.15,2013-09-30 02:00:00,
2013-09-29 21:05:00,59.8,45.9,29.90,ENE,76,0.0,0.0,60,0.00,,,0.01,Wunderground v.1.15,2013-09-30 02:05:00,
2013-09-29 21:11:00,59.5,45.6,29.91,ENE,76,0.0,0.0,60,0.00,,,0.01,Wunderground v.1.15,2013-09-30 02:11:00,
2013-09-29 21:16:00,59.4,45.9,29.90,ENE,76,0.0,0.0,61,0.00,,,0.01,Wunderground v.1.15,2013-09-30 02:16:00,
2013-09-29 21:21:00,59.1,45.7,29.90,ENE,76,0.0,2.0,61,0.00,,,0.01,Wunderground v.1.15,2013-09-30 02:21:00,
2013-09-29 21:27:00,59.1,45.7,29.90,ENE,76,0.0,2.0,61,0.00,,,0.01,Wunderground v.1.15,2013-09-30 02:27:00,
2013-09-29 21:33:00,59.0,46.0,29.90,ENE,76,0.0,0.0,62,0.00,,,0.01,Wunderground v.1.15,2013-09-30 02:33:00,
2013-09-29 21:38:00,58.6,45.6,29.91,ENE,76,1.0,3.0,62,0.00,,,0.01,Wunderground v.1.15,2013-09-30 02:38:00,
2013-09-29 21:44:00,58.3,45.8,29.90,ENE,76,1.0,1.0,63,0.00,,,0.01,Wunderground v.1.15,2013-09-30 02:44:00,
2013-09-29 21:50:00,58.0,45.9,29.91,ENE,76,0.0,0.0,64,0.00,,,0.01,Wunderground v.1.15,2013-09-30 02:50:00,
2013-09-29 21:55:00,57.9,45.8,29.90,ENE,76,0.0,2.0,64,0.00,,,0.01,Wunderground v.1.15,2013-09-30 02:55:00,
2013-09-29 22:00:00,57.5,45.8,29.91,ENE,76,0.0,0.0,65,0.00,,,0.01,Wunderground v.1.15,2013-09-30 03:00:00,
2013-09-29 22:05:00,57.1,45.8,29.90,ENE,76,0.0,0.0,66,0.00,,,0.01,Wunderground v.1.15,2013-09-30 03:05:00,
2013-09-29 22:11:00,56.7,45.9,29.90,ENE,76,0.0,0.0,67,0.00,,,0.01,Wunderground v.1.15,2013-09-30 03:11:00,
2013-09-29 22:17:00,56.4,46.0,29.90,ENE,76,1.0,2.0,68,0.00,,,0.01,Wunderground v.1.15,2013-09-30 03:17:00,
2013-09-29 22:22:00,56.2,46.2,29.90,ENE,76,2.0,3.0,69,0.00,,,0.01,Wunderground v.1.15,2013-09-30 03:22:00,
2013-09-29 22:28:00,56.1,46.4,29.91,ENE,76,3.0,4.0,70,0.00,,,0.01,Wunderground v.1.15,2013-09-30 03:28:00,
2013-09-29 22:34:00,55.8,46.2,29.90,ENE,76,4.0,4.0,70,0.00,,,0.01,Wunderground v.1.15,2013-09-30 03:34:00,
2013-09-29 22:40:00,55.4,46.2,29.90,ENE,76,4.0,4.0,71,0.00,,,0.01,Wunderground v.1.15,2013-09-30 03:40:00,
2013-09-29 22:45:00,55.0,46.5,29.90,ENE,76,4.0,4.0,73,0.00,,,0.01,Wunderground v.1.15,2013-09-30 03:45:00,
2013-09-29 22:50:00,54.8,46.7,29.90,ENE,77,4.0,5.0,74,0.00,,,0.01,Wunderground v.1.15,2013-09-30 03:50:00,
2013-09-29 22:55:00,54.5,46.4,29.90,East,82,4.0,5.0,74,0.00,,,0.01,Wunderground v.1.15,2013-09-30 03:55:00,
2013-09-29 23:01:00,54.3,46.5,29.90,East,82,3.0,3.0,75,0.00,,,0.01,Wunderground v.1.15,2013-09-30 04:01:00,
2013-09-29 23:02:00,54.3,46.5,29.90,East,82,3.0,3.0,75,0.00,,,0.01,Wunderground v.1.15,2013-09-30 04:02:00,
2013-09-29 23:04:00,54.2,46.4,29.90,East,82,3.0,4.0,75,0.00,,,0.01,Wunderground v.1.15,2013-09-30 04:04:00,
2013-09-29 23:05:00,54.1,46.3,29.90,East,83,3.0,4.0,75,0.00,,,0.01,Wunderground v.1.15,2013-09-30 04:05:00,
2013-09-29 23:11:00,53.8,46.8,29.90,East,84,3.0,3.0,77,0.00,,,0.01,Wunderground v.1.15,2013-09-30 04:11:00,
2013-09-29 23:17:00,53.6,46.6,29.90,East,84,2.0,3.0,77,0.00,,,0.01,Wunderground v.1.15,2013-09-30 04:17:00,
2013-09-29 23:23:00,53.4,46.7,29.90,East,84,2.0,3.0,78,0.00,,,0.01,Wunderground v.1.15,2013-09-30 04:23:00,
2013-09-29 23:28:00,53.3,46.6,29.90,East,84,2.0,3.0,78,0.00,,,0.01,Wunderground v.1.15,2013-09-30 04:28:00,
2013-09-29 23:31:00,53.3,46.6,29.90,East,84,2.0,2.0,78,0.00,,,0.01,Wunderground v.1.15,2013-09-30 04:31:00,
2013-09-29 23:37:00,53.1,46.8,29.90,East,84,1.0,2.0,79,0.00,,,0.01,Wunderground v.1.15,2013-09-30 04:37:00,
2013-09-29 23:42:00,53.0,46.7,29.90,East,84,2.0,3.0,79,0.00,,,0.01,Wunderground v.1.15,2013-09-30 04:42:00,
2013-09-29 23:47:00,53.0,46.7,29.90,East,84,2.0,3.0,79,0.00,,,0.01,Wunderground v.1.15,2013-09-30 04:47:00,
2013-09-29 23:53:00,52.9,46.9,29.90,East,84,1.0,3.0,80,0.00,,,0.01,Wunderground v.1.15,2013-09-30 04:53:00,
2013-09-29 23:59:00,52.9,46.9,29.90,East,84,3.0,3.0,80,0.00,,,0.00,Wunderground v.1.15,2013-09-30 04:59:00,